Time;durP1;ratioP1;P1;durP2;ratioP2;P2;SDS_P1;SDS_P2;PMS_P1;PMS_P2;Temp;Humidity;BMP_temperature;BMP_pressure;BME280_temperature;BME280_humidity;BME280_pressure;Samples;Min_cycle;Max_cycle;Signal;HPM_P1;HPM_P2
2024/01/20 00:01:56;;;;;;;18.30;16.80;;;-0.10;99.90;;;;;;4832147;29;20046;-82
2024/01/20 00:04:21;;;;;;;20.95;19.13;;;-0.10;99.90;;;;;;4853689;29;20045;-86
2024/01/20 00:06:47;;;;;;;24.13;22.08;;;-0.20;99.90;;;;;;4842578;29;20173;-82
2024/01/20 00:09:13;;;;;;;19.30;17.67;;;-0.10;99.90;;;;;;4844039;29;20078;-79
2024/01/20 00:11:39;;;;;;;21.85;19.75;;;-0.10;99.90;;;;;;4840408;29;20044;-84
2024/01/20 00:14:04;;;;;;;24.75;22.83;;;-0.10;99.90;;;;;;4860163;29;20058;-86
2024/01/20 00:16:30;;;;;;;20.98;19.10;;;0.30;99.90;;;;;;4865119;29;20046;-83
2024/01/20 00:18:57;;;;;;;23.05;21.02;;;-0.20;99.90;;;;;;4841170;29;20045;-80
2024/01/20 00:21:23;;;;;;;24.65;22.38;;;0.40;99.90;;;;;;4837402;29;20057;-81
2024/01/20 00:23:49;;;;;;;25.55;23.35;;;-0.20;99.90;;;;;;4845840;29;20053;-81
2024/01/20 00:26:15;;;;;;;24.35;22.15;;;0.10;99.90;;;;;;4864510;29;20057;-87
2024/01/20 00:28:40;;;;;;;21.73;19.67;;;-0.20;99.90;;;;;;4844806;29;20105;-84
2024/01/20 00:31:06;;;;;;;26.83;24.13;;;-0.20;99.90;;;;;;4852275;29;20072;-88
2024/01/20 00:33:32;;;;;;;25.73;23.25;;;-0.30;99.90;;;;;;4847076;29;20045;-82
2024/01/20 00:35:57;;;;;;;24.13;22.00;;;-0.20;99.90;;;;;;4845083;29;20045;-83
2024/01/20 00:38:25;;;;;;;22.27;20.05;;;-0.20;99.90;;;;;;4869071;29;20520;-87
2024/01/20 00:40:51;;;;;;;20.45;18.42;;;-0.20;99.90;;;;;;4839627;29;20045;-85
2024/01/20 00:43:17;;;;;;;23.85;21.75;;;-0.30;99.90;;;;;;4849007;29;20050;-87
2024/01/20 00:45:42;;;;;;;28.30;25.50;;;0.00;99.90;;;;;;4849183;29;20080;-83
2024/01/20 00:48:08;;;;;;;21.10;19.35;;;-0.30;99.90;;;;;;4839537;29;20050;-84
2024/01/20 00:50:34;;;;;;;22.77;20.35;;;-0.30;99.90;;;;;;4852428;29;20102;-84
2024/01/20 00:52:59;;;;;;;25.58;23.13;;;-0.30;99.90;;;;;;4835720;29;20050;-88
2024/01/20 00:55:25;;;;;;;20.92;18.98;;;-0.30;99.90;;;;;;4857169;29;20037;-83
2024/01/20 00:57:51;;;;;;;23.00;20.77;;;-0.40;99.90;;;;;;4853528;29;20077;-83
2024/01/20 01:00:17;;;;;;;28.80;25.77;;;-0.40;99.90;;;;;;4844570;29;20037;-83
2024/01/20 01:02:42;;;;;;;25.65;23.52;;;-0.30;99.90;;;;;;4839909;29;20046;-80
2024/01/20 01:05:09;;;;;;;23.15;20.85;;;0.30;99.90;;;;;;4860253;29;20053;-87
2024/01/20 01:07:35;;;;;;;25.88;23.60;;;0.20;99.90;;;;;;4839752;29;20466;-82
2024/01/20 01:10:03;;;;;;;23.38;21.25;;;-0.30;99.90;;;;;;4869661;29;20060;-82
2024/01/20 01:12:29;;;;;;;25.35;22.65;;;-0.30;99.90;;;;;;4861617;29;20113;-84
2024/01/20 01:14:55;;;;;;;20.60;18.85;;;-0.30;99.90;;;;;;4860256;29;20100;-85
2024/01/20 01:17:21;;;;;;;21.20;19.13;;;-0.40;99.90;;;;;;4840501;29;20081;-82
2024/01/20 01:19:47;;;;;;;24.40;21.90;;;-0.30;99.90;;;;;;4865283;29;20398;-85
2024/01/20 01:22:13;;;;;;;22.58;20.13;;;-0.40;99.90;;;;;;4855113;29;20037;-83
2024/01/20 01:24:39;;;;;;;24.48;22.25;;;-0.40;99.90;;;;;;4846187;29;20061;-84
2024/01/20 01:27:05;;;;;;;27.95;25.33;;;-0.40;99.90;;;;;;4839198;29;20050;-83
2024/01/20 01:29:31;;;;;;;23.23;20.90;;;-0.30;99.90;;;;;;4861832;29;20042;-84
2024/01/20 01:31:57;;;;;;;26.08;23.65;;;-0.40;99.90;;;;;;4843839;29;20381;-81
2024/01/20 01:34:23;;;;;;;23.73;21.45;;;-0.40;99.90;;;;;;4838148;29;20053;-82
2024/01/20 01:36:48;;;;;;;31.58;28.75;;;-0.40;99.90;;;;;;4844374;29;20050;-80
2024/01/20 01:39:16;;;;;;;22.23;20.17;;;-0.40;99.90;;;;;;4861693;29;20038;-87
2024/01/20 01:41:42;;;;;;;23.92;21.83;;;-0.40;99.90;;;;;;4844802;29;20046;-82
2024/01/20 01:44:08;;;;;;;24.45;22.15;;;-0.50;99.90;;;;;;4842893;29;20053;-82
2024/01/20 01:46:34;;;;;;;23.98;21.95;;;-0.50;99.90;;;;;;4845845;29;20050;-87
2024/01/20 01:49:01;;;;;;;28.55;26.08;;;-0.50;99.90;;;;;;4849616;29;20504;-85
2024/01/20 01:51:27;;;;;;;28.58;25.80;;;-0.50;99.90;;;;;;4844079;29;20046;-85
2024/01/20 01:53:57;;;;;;;25.77;23.52;;;-0.50;99.90;;;;;;4834365;29;20114;-82
2024/01/20 01:56:23;;;;;;;23.13;20.95;;;-0.50;99.90;;;;;;4842662;29;20113;-81
2024/01/20 01:58:49;;;;;;;27.67;25.02;;;-0.50;99.90;;;;;;4838265;29;20038;-81
2024/01/20 02:01:14;;;;;;;27.73;25.13;;;-0.50;99.90;;;;;;4851096;29;20058;-81
2024/01/20 02:03:40;;;;;;;22.65;20.42;;;-0.50;99.90;;;;;;4844908;29;20038;-83
2024/01/20 02:06:06;;;;;;;29.70;26.88;;;-0.50;99.90;;;;;;4833974;29;20102;-83
2024/01/20 02:08:35;;;;;;;27.10;24.67;;;-0.50;99.90;;;;;;4844363;29;20046;-85
2024/01/20 02:11:01;;;;;;;23.52;21.40;;;-0.50;99.90;;;;;;4834243;29;20097;-79
2024/01/20 02:13:27;;;;;;;25.23;22.77;;;-0.50;99.90;;;;;;4864387;29;20121;-82
2024/01/20 02:15:54;;;;;;;23.55;21.38;;;-0.50;99.90;;;;;;4850627;29;20041;-80
2024/01/20 02:18:23;;;;;;;26.83;24.40;;;-0.40;99.90;;;;;;4858945;29;20097;-83
2024/01/20 02:20:49;;;;;;;22.98;20.65;;;-0.20;99.90;;;;;;4860877;29;20390;-81
2024/01/20 02:23:15;;;;;;;26.20;23.63;;;-0.50;99.90;;;;;;4834800;29;20046;-85
2024/01/20 02:25:41;;;;;;;25.30;22.90;;;-0.50;99.90;;;;;;4852250;29;20383;-81
2024/01/20 02:28:07;;;;;;;27.52;24.83;;;-0.50;99.90;;;;;;4841774;29;20050;-83
2024/01/20 02:30:32;;;;;;;25.40;22.70;;;-0.20;99.90;;;;;;4842492;29;20054;-85
2024/01/20 02:32:58;;;;;;;26.13;23.30;;;-0.20;99.90;;;;;;4837355;29;20099;-83
2024/01/20 02:35:24;;;;;;;33.33;30.13;;;-0.60;99.90;;;;;;4843960;29;20060;-88
2024/01/20 02:37:50;;;;;;;27.73;23.20;;;-0.60;99.90;;;;;;4840226;29;20395;-84
2024/01/20 02:40:16;;;;;;;25.55;22.92;;;-0.60;99.90;;;;;;4851518;29;20048;-85
2024/01/20 02:42:42;;;;;;;32.13;28.77;;;-0.60;99.90;;;;;;4866874;29;20078;-85
2024/01/20 02:45:08;;;;;;;27.70;24.83;;;-0.10;99.90;;;;;;4848920;29;20057;-82
2024/01/20 02:47:33;;;;;;;30.25;27.15;;;-0.60;99.90;;;;;;4852827;29;20133;-81
2024/01/20 02:49:59;;;;;;;25.60;23.13;;;-0.60;99.90;;;;;;4856462;29;20049;-88
2024/01/20 02:52:25;;;;;;;35.88;32.38;;;-0.60;99.90;;;;;;4869189;29;20050;-85
2024/01/20 02:54:50;;;;;;;32.10;29.02;;;-0.60;99.90;;;;;;4849911;29;20041;-82
2024/01/20 02:57:16;;;;;;;28.73;25.92;;;-0.70;99.90;;;;;;4841236;29;20105;-81
2024/01/20 02:59:42;;;;;;;29.50;26.35;;;-0.80;99.90;;;;;;4850630;29;20053;-84
2024/01/20 03:02:08;;;;;;;29.42;26.52;;;-0.80;99.90;;;;;;4848625;29;20049;-83
2024/01/20 03:04:33;;;;;;;23.95;21.48;;;-0.40;99.90;;;;;;4848418;29;20125;-82
2024/01/20 03:06:59;;;;;;;28.25;25.38;;;-0.80;99.90;;;;;;4862391;29;20041;-86
2024/01/20 03:09:25;;;;;;;28.05;25.05;;;-0.80;99.90;;;;;;4860233;29;20077;-81
2024/01/20 03:11:51;;;;;;;29.20;26.33;;;-0.80;99.90;;;;;;4863549;29;20054;-83
2024/01/20 03:14:16;;;;;;;32.33;29.23;;;-0.80;99.90;;;;;;4847019;29;20111;-83
2024/01/20 03:16:42;;;;;;;28.73;25.88;;;-0.40;99.90;;;;;;4835849;29;20106;-82
2024/01/20 03:19:08;;;;;;;26.90;24.38;;;-0.30;99.90;;;;;;4848478;29;20050;-89
2024/01/20 03:21:34;;;;;;;26.55;23.80;;;-0.90;99.90;;;;;;4846046;29;20049;-86
2024/01/20 03:24:00;;;;;;;25.75;21.58;;;-0.90;99.90;;;;;;4848476;29;20072;-83
2024/01/20 03:26:25;;;;;;;24.83;22.30;;;-0.90;99.90;;;;;;4839052;29;20050;-86
2024/01/20 03:28:51;;;;;;;27.23;24.33;;;-0.90;99.90;;;;;;4841641;29;20050;-84
2024/01/20 03:31:17;;;;;;;29.17;26.30;;;-0.90;99.90;;;;;;4834407;29;20046;-83
2024/01/20 03:33:43;;;;;;;25.08;22.40;;;-0.90;99.90;;;;;;4837018;29;20070;-83
2024/01/20 03:36:10;;;;;;;29.48;26.50;;;-1.00;99.90;;;;;;4847923;29;20093;-84
2024/01/20 03:38:36;;;;;;;28.90;25.95;;;-1.00;99.90;;;;;;4850320;29;20050;-83
2024/01/20 03:41:02;;;;;;;31.35;28.00;;;-1.20;99.90;;;;;;4834408;29;20045;-86
2024/01/20 03:43:28;;;;;;;28.90;25.98;;;-1.00;99.90;;;;;;4866885;29;20065;-85
2024/01/20 03:45:53;;;;;;;25.83;23.17;;;-1.00;99.90;;;;;;4841470;29;20089;-83
2024/01/20 03:48:19;;;;;;;27.30;24.40;;;-1.00;99.90;;;;;;4851647;29;20041;-84
2024/01/20 03:50:45;;;;;;;27.88;24.85;;;-0.80;99.90;;;;;;4862148;29;20053;-84
2024/01/20 03:53:11;;;;;;;27.38;24.63;;;-1.00;99.90;;;;;;4859025;29;20069;-85
2024/01/20 03:55:37;;;;;;;28.23;23.38;;;-1.00;99.90;;;;;;4843991;29;20054;-88
2024/01/20 03:58:03;;;;;;;26.20;23.55;;;-1.00;99.90;;;;;;4832916;29;20052;-83
2024/01/20 04:00:28;;;;;;;29.77;26.58;;;-1.00;99.90;;;;;;4845473;29;20046;-83
2024/01/20 04:02:55;;;;;;;27.23;24.15;;;-1.00;99.90;;;;;;4852984;29;20135;-85
2024/01/20 04:05:21;;;;;;;30.02;24.63;;;-1.00;99.90;;;;;;4838857;29;20050;-86
2024/01/20 04:07:47;;;;;;;30.05;26.95;;;-1.10;99.90;;;;;;4844238;29;20408;-82
2024/01/20 04:10:13;;;;;;;33.67;27.35;;;-1.00;99.90;;;;;;4851855;29;20046;-81
2024/01/20 04:12:40;;;;;;;27.60;23.40;;;-1.00;99.90;;;;;;4868124;29;20125;-84
2024/01/20 04:15:06;;;;;;;33.17;29.80;;;-0.90;99.90;;;;;;4848121;29;20513;-82
2024/01/20 04:17:32;;;;;;;33.08;29.70;;;-1.00;99.90;;;;;;4838584;29;20083;-83
2024/01/20 04:19:57;;;;;;;29.95;26.98;;;-0.90;99.90;;;;;;4844632;29;20050;-85
2024/01/20 04:22:23;;;;;;;29.92;25.80;;;-0.90;99.90;;;;;;4846988;29;20064;-87
2024/01/20 04:24:49;;;;;;;28.95;24.00;;;-0.90;99.90;;;;;;4837827;29;20141;-86
2024/01/20 04:27:14;;;;;;;32.22;26.75;;;-0.80;99.90;;;;;;4839428;29;20049;-84
2024/01/20 04:29:40;;;;;;;32.67;28.60;;;-0.60;99.90;;;;;;4856187;29;20115;-83
2024/01/20 04:32:06;;;;;;;32.70;25.67;;;-0.80;99.90;;;;;;4850561;29;20046;-88
2024/01/20 04:34:31;;;;;;;28.10;25.08;;;-0.80;99.90;;;;;;4865326;29;20053;-88
2024/01/20 04:36:57;;;;;;;30.88;25.50;;;-0.90;99.90;;;;;;4858624;29;20050;-88
2024/01/20 04:39:23;;;;;;;27.08;23.08;;;-0.90;99.90;;;;;;4843859;29;20073;-87
2024/01/20 04:41:48;;;;;;;31.55;28.17;;;-1.00;99.90;;;;;;4837219;29;20046;-82
2024/01/20 04:44:14;;;;;;;36.70;31.73;;;-1.00;99.90;;;;;;4851302;29;20069;-81
2024/01/20 04:46:40;;;;;;;35.88;27.15;;;-1.00;99.90;;;;;;4869792;29;20057;-83
2024/01/20 04:49:06;;;;;;;34.38;27.42;;;-1.00;99.90;;;;;;4843670;29;20042;-82
2024/01/20 04:51:32;;;;;;;26.65;22.65;;;-1.00;99.90;;;;;;4857043;29;20101;-83
2024/01/20 04:53:58;;;;;;;33.03;26.38;;;-1.10;99.90;;;;;;4858180;29;20053;-81
2024/01/20 04:56:23;;;;;;;33.45;24.80;;;-1.10;99.90;;;;;;4847516;29;20127;-83
2024/01/20 04:58:51;;;;;;;29.40;23.27;;;-1.10;99.90;;;;;;4835667;29;20048;-85
2024/01/20 05:01:18;;;;;;;34.35;26.02;;;-1.10;99.90;;;;;;4845443;29;20509;-83
2024/01/20 05:03:43;;;;;;;34.13;23.75;;;-1.10;99.90;;;;;;4843169;29;20073;-81
2024/01/20 05:06:09;;;;;;;32.72;21.83;;;-1.10;99.90;;;;;;4841209;29;20045;-90
2024/01/20 05:08:35;;;;;;;38.35;27.48;;;-1.20;99.90;;;;;;4848108;29;20046;-84
2024/01/20 05:11:01;;;;;;;38.53;29.33;;;-1.20;99.90;;;;;;4849535;29;20105;-84
2024/01/20 05:13:26;;;;;;;41.97;29.23;;;-1.20;99.90;;;;;;4856824;29;20042;-84
2024/01/20 05:15:55;;;;;;;28.85;22.10;;;-1.20;99.90;;;;;;4834931;29;20132;-86
2024/01/20 05:18:20;;;;;;;37.78;26.33;;;-1.30;99.90;;;;;;4839456;29;20124;-83
2024/01/20 05:20:46;;;;;;;31.83;23.65;;;-1.20;99.90;;;;;;4851096;29;20081;-83
2024/01/20 05:23:12;;;;;;;34.88;23.30;;;-1.20;99.90;;;;;;4853117;29;20069;-91
2024/01/20 05:25:38;;;;;;;31.40;22.80;;;-1.20;99.90;;;;;;4843024;29;20098;-90
2024/01/20 05:28:04;;;;;;;36.92;26.88;;;-1.10;99.90;;;;;;4842556;29;20069;-89
2024/01/20 05:30:30;;;;;;;35.13;26.38;;;-1.30;99.90;;;;;;4836056;29;20053;-86
2024/01/20 05:32:56;;;;;;;37.60;28.60;;;-1.30;99.90;;;;;;4849395;29;20467;-83
2024/01/20 05:35:21;;;;;;;33.15;24.00;;;-1.20;99.90;;;;;;4846619;29;20049;-90
2024/01/20 05:37:47;;;;;;;30.67;21.05;;;-1.30;99.90;;;;;;4839586;29;20050;-82
2024/01/20 05:40:13;;;;;;;28.88;24.70;;;-1.30;99.90;;;;;;4849364;29;20074;-82
2024/01/20 05:42:39;;;;;;;30.05;26.25;;;-0.90;99.90;;;;;;4844598;29;20224;-81
2024/01/20 05:45:08;;;;;;;27.02;20.85;;;-1.30;99.90;;;;;;4853637;29;20076;-86
2024/01/20 05:47:35;;;;;;;31.35;24.60;;;-1.30;99.90;;;;;;4840548;29;20046;-82
2024/01/20 05:50:05;;;;;;;39.38;25.88;;;-1.40;99.90;;;;;;4849922;29;20042;-82
2024/01/20 05:52:30;;;;;;;33.40;23.65;;;-1.40;99.90;;;;;;4849062;29;20124;-84
2024/01/20 05:54:56;;;;;;;31.00;22.17;;;-1.30;99.90;;;;;;4860082;29;20042;-83
2024/01/20 05:57:23;;;;;;;35.15;21.02;;;-1.40;99.90;;;;;;4852607;29;20044;-82
2024/01/20 05:59:49;;;;;;;36.03;24.75;;;-1.40;99.90;;;;;;4846826;29;20418;-90
2024/01/20 06:02:15;;;;;;;34.22;24.15;;;-1.40;99.90;;;;;;4859318;29;20050;-82
2024/01/20 06:04:41;;;;;;;30.63;21.15;;;-0.60;99.90;;;;;;4867769;29;20049;-86
2024/01/20 06:07:07;;;;;;;30.67;22.90;;;-1.30;99.90;;;;;;4836320;29;20082;-82
2024/01/20 06:09:32;;;;;;;32.95;23.40;;;-1.40;99.90;;;;;;4844444;29;20048;-83
2024/01/20 06:11:58;;;;;;;34.42;24.40;;;-0.20;99.90;;;;;;4850052;29;20050;-88
2024/01/20 06:14:24;;;;;;;32.70;22.38;;;-1.00;99.90;;;;;;4862022;29;20125;-87
2024/01/20 06:16:49;;;;;;;25.55;18.80;;;-1.30;99.90;;;;;;4868041;29;20092;-85
2024/01/20 06:19:15;;;;;;;28.10;22.67;;;-1.40;99.90;;;;;;4837133;29;20045;-88
2024/01/20 06:21:41;;;;;;;33.55;21.88;;;-1.40;99.90;;;;;;4836580;29;20057;-83
2024/01/20 06:24:07;;;;;;;26.65;20.85;;;-1.30;99.90;;;;;;4863542;29;20166;-83
2024/01/20 06:26:33;;;;;;;29.63;24.77;;;-1.20;99.90;;;;;;4845013;29;20121;-84
2024/01/20 06:28:58;;;;;;;26.38;21.45;;;-1.20;99.90;;;;;;4849524;29;20443;-81
2024/01/20 06:31:26;;;;;;;36.25;24.65;;;-1.10;99.90;;;;;;4840012;29;20045;-84
2024/01/20 06:33:52;;;;;;;25.67;20.13;;;-1.10;99.90;;;;;;4850740;29;20054;-83
2024/01/20 06:36:21;;;;;;;25.15;20.90;;;-1.10;99.90;;;;;;4833684;29;20053;-82
2024/01/20 06:38:49;;;;;;;33.55;30.00;;;-1.10;99.90;;;;;;4863088;29;20144;-82
2024/01/20 06:41:15;;;;;;;29.75;22.42;;;-1.10;99.90;;;;;;4833535;29;20077;-85
2024/01/20 06:43:41;;;;;;;29.90;22.40;;;-1.20;99.90;;;;;;4834575;29;20049;-80
2024/01/20 06:46:07;;;;;;;26.45;21.33;;;-1.20;99.90;;;;;;4858164;29;20054;-83
2024/01/20 06:48:34;;;;;;;28.45;24.25;;;-1.20;99.90;;;;;;4857973;29;20050;-84
2024/01/20 06:51:03;;;;;;;28.90;22.55;;;-1.20;99.90;;;;;;4862771;29;20049;-85
2024/01/20 06:53:30;;;;;;;30.05;21.92;;;-1.20;99.90;;;;;;4848296;29;20056;-82
2024/01/20 06:55:56;;;;;;;28.33;23.10;;;-1.20;99.90;;;;;;4856877;29;20057;-82
2024/01/20 06:58:23;;;;;;;28.10;23.73;;;-1.20;99.90;;;;;;4832920;29;20412;-81
2024/01/20 07:00:49;;;;;;;29.25;22.10;;;-1.10;99.90;;;;;;4849003;29;20475;-81
2024/01/20 07:03:15;;;;;;;31.10;23.55;;;-1.20;99.90;;;;;;4833708;29;20452;-82
2024/01/20 07:05:41;;;;;;;30.85;21.98;;;-1.30;99.90;;;;;;4833793;29;20049;-81
2024/01/20 07:08:07;;;;;;;29.35;19.05;;;-1.30;99.90;;;;;;4850407;29;20075;-86
2024/01/20 07:10:32;;;;;;;30.55;21.20;;;-0.80;99.90;;;;;;4837579;29;20069;-83
2024/01/20 07:12:58;;;;;;;28.25;20.38;;;-1.20;99.90;;;;;;4840053;29;20528;-82
2024/01/20 07:15:24;;;;;;;32.88;21.98;;;-1.20;99.90;;;;;;4842041;29;20044;-82
2024/01/20 07:17:50;;;;;;;37.03;22.73;;;-1.20;99.90;;;;;;4844746;29;20046;-88
2024/01/20 07:20:16;;;;;;;24.55;19.95;;;-1.20;99.90;;;;;;4857277;29;20069;-83
2024/01/20 07:22:41;;;;;;;31.38;22.50;;;-1.20;99.90;;;;;;4850076;29;20102;-83
2024/01/20 07:25:08;;;;;;;22.50;18.58;;;-1.20;99.90;;;;;;4848315;29;20056;-87
2024/01/20 07:27:34;;;;;;;24.48;19.88;;;-1.20;99.90;;;;;;4841795;29;20069;-85
2024/01/20 07:30:00;;;;;;;29.92;20.00;;;-1.20;99.90;;;;;;4863409;29;20045;-84
2024/01/20 07:32:26;;;;;;;25.15;21.45;;;-1.20;99.90;;;;;;4846331;29;20407;-82
2024/01/20 07:34:51;;;;;;;26.35;20.67;;;-0.90;99.90;;;;;;4836963;29;20045;-82
2024/01/20 07:37:17;;;;;;;27.13;18.77;;;-1.00;99.90;;;;;;4844655;29;20046;-85
2024/01/20 07:39:43;;;;;;;28.30;25.17;;;-1.20;99.90;;;;;;4857402;29;20100;-84
2024/01/20 07:42:09;;;;;;;23.50;20.15;;;-1.10;99.90;;;;;;4853592;29;20065;-82
2024/01/20 07:44:35;;;;;;;29.15;21.67;;;-1.10;99.90;;;;;;4838736;29;20064;-83
2024/01/20 07:47:02;;;;;;;28.42;19.52;;;-1.10;99.90;;;;;;4862682;29;20049;-82
2024/01/20 07:49:27;;;;;;;25.67;18.55;;;-1.30;99.90;;;;;;4848826;29;20053;-88
2024/01/20 07:51:53;;;;;;;25.80;19.67;;;-0.50;99.90;;;;;;4835948;29;20065;-84
2024/01/20 07:54:19;;;;;;;30.90;23.13;;;-1.10;99.90;;;;;;4835638;29;20038;-83
2024/01/20 07:56:44;;;;;;;32.88;22.98;;;-0.30;99.90;;;;;;4851627;29;20153;-85
2024/01/20 07:59:10;;;;;;;26.30;20.98;;;-0.90;99.90;;;;;;4835223;29;20050;-86
2024/01/20 08:01:36;;;;;;;30.65;22.55;;;-0.90;99.90;;;;;;4841583;29;20041;-87
2024/01/20 08:04:02;;;;;;;31.52;23.63;;;-0.80;99.90;;;;;;4850336;29;20053;-85
2024/01/20 08:06:28;;;;;;;28.08;18.35;;;-0.80;99.90;;;;;;4834386;29;20042;-86
2024/01/20 08:08:53;;;;;;;26.92;19.55;;;-0.70;99.90;;;;;;4846652;29;20049;-84
2024/01/20 08:11:19;;;;;;;29.40;21.45;;;1.00;99.90;;;;;;4849474;29;20128;-83
2024/01/20 08:13:45;;;;;;;26.98;20.05;;;-0.70;99.90;;;;;;4862019;29;20050;-88
2024/01/20 08:16:10;;;;;;;26.33;19.27;;;-0.70;99.90;;;;;;4868135;29;20041;-83
2024/01/20 08:18:36;;;;;;;23.70;20.50;;;-0.70;99.90;;;;;;4845913;29;20478;-84
2024/01/20 08:21:08;;;;;;;22.90;16.27;;;-0.70;99.90;;;;;;4866975;29;20136;-88
2024/01/20 08:23:34;;;;;;;26.23;19.67;;;-0.90;99.90;;;;;;4851147;29;20108;-88
2024/01/20 08:26:00;;;;;;;29.25;19.15;;;-0.10;99.90;;;;;;4844895;29;20144;-89
2024/01/20 08:28:25;;;;;;;26.08;19.30;;;-0.60;99.90;;;;;;4872505;29;20042;-84
2024/01/20 08:30:52;;;;;;;28.67;18.00;;;-0.60;99.90;;;;;;4855509;29;20042;-85
2024/01/20 08:33:17;;;;;;;23.15;16.30;;;-0.60;99.90;;;;;;4849855;29;20042;-84
2024/01/20 08:35:43;;;;;;;25.30;18.55;;;-0.50;99.90;;;;;;4850198;29;20057;-90
2024/01/20 08:38:09;;;;;;;23.65;18.58;;;-0.50;99.90;;;;;;4850142;29;20042;-86
2024/01/20 08:40:37;;;;;;;28.20;16.83;;;-0.50;99.90;;;;;;4850003;29;20146;-89
2024/01/20 08:43:03;;;;;;;32.45;19.00;;;0.10;99.90;;;;;;4850712;29;20076;-88
2024/01/20 08:45:29;;;;;;;22.05;17.02;;;-0.10;99.90;;;;;;4863938;29;20077;-88
2024/01/20 08:47:55;;;;;;;25.77;17.95;;;-0.40;99.90;;;;;;4856677;29;20137;-89
2024/01/20 08:50:20;;;;;;;21.70;17.70;;;-0.40;99.90;;;;;;4853963;29;20041;-84
2024/01/20 08:52:46;;;;;;;25.58;19.42;;;-0.40;99.90;;;;;;4876726;29;20540;-85
2024/01/20 08:55:12;;;;;;;24.98;15.57;;;-0.30;99.90;;;;;;4853485;29;20049;-87
2024/01/20 08:57:38;;;;;;;25.35;18.70;;;-0.30;99.90;;;;;;4854197;29;20049;-92
2024/01/20 09:00:05;;;;;;;20.13;16.92;;;-0.30;99.90;;;;;;4853044;29;20045;-88
2024/01/20 09:02:31;;;;;;;27.10;20.35;;;-0.30;99.90;;;;;;4867401;29;20512;-87
2024/01/20 09:04:57;;;;;;;25.95;17.08;;;-0.20;99.90;;;;;;4851578;29;20085;-82
2024/01/20 09:07:22;;;;;;;25.40;18.80;;;-0.20;99.90;;;;;;4846818;29;20041;-86
2024/01/20 09:09:48;;;;;;;27.60;20.23;;;-0.10;99.90;;;;;;4850748;29;20045;-83
2024/01/20 09:12:14;;;;;;;23.70;19.55;;;0.00;99.90;;;;;;4853021;29;20045;-88
2024/01/20 09:14:39;;;;;;;20.13;16.48;;;0.00;99.90;;;;;;4866162;29;20048;-87
2024/01/20 09:17:05;;;;;;;24.33;17.98;;;-0.10;99.90;;;;;;4851551;29;20054;-84
2024/01/20 09:19:31;;;;;;;26.38;18.83;;;0.00;99.90;;;;;;4866945;29;20049;-84
2024/01/20 09:21:57;;;;;;;25.95;20.17;;;0.10;99.90;;;;;;4852970;29;20042;-83
2024/01/20 09:24:22;;;;;;;26.65;21.02;;;0.40;99.90;;;;;;3995991;29;10000961;-83
2024/01/20 09:26:48;;;;;;;23.65;19.42;;;0.10;99.90;;;;;;4834122;29;20541;-83
2024/01/20 09:29:14;;;;;;;29.92;21.48;;;0.00;99.90;;;;;;4847246;29;20038;-83
2024/01/20 09:31:40;;;;;;;26.20;21.50;;;0.00;99.90;;;;;;4836042;29;20110;-87
2024/01/20 09:34:06;;;;;;;27.85;21.40;;;0.00;99.90;;;;;;4857491;29;20065;-88
2024/01/20 09:36:32;;;;;;;21.08;17.88;;;0.00;99.90;;;;;;4847704;29;20045;-82
2024/01/20 09:38:57;;;;;;;21.13;17.20;;;0.00;99.90;;;;;;4832431;29;20042;-91
2024/01/20 09:41:24;;;;;;;31.33;21.35;;;0.70;99.90;;;;;;4832888;29;20083;-84
2024/01/20 09:43:50;;;;;;;25.02;17.13;;;0.10;99.90;;;;;;4833618;29;20050;-89
2024/01/20 09:46:16;;;;;;;21.17;17.13;;;0.10;99.90;;;;;;4845914;29;20050;-80
2024/01/20 09:48:43;;;;;;;22.08;17.90;;;0.10;99.90;;;;;;4846911;29;20331;-83
2024/01/20 09:51:09;;;;;;;22.65;18.10;;;0.20;99.90;;;;;;4832554;29;20125;-85
2024/01/20 09:53:35;;;;;;;23.38;18.02;;;0.20;99.90;;;;;;4844969;29;20077;-84
2024/01/20 09:56:02;;;;;;;22.48;17.35;;;0.20;99.90;;;;;;4834218;29;20091;-83
2024/01/20 09:58:30;;;;;;;26.58;15.68;;;0.30;99.90;;;;;;4848786;29;20042;-82
2024/01/20 10:00:57;;;;;;;24.38;17.60;;;-0.40;99.90;;;;;;4833879;29;20129;-85
2024/01/20 10:03:26;;;;;;;20.80;16.95;;;0.50;99.90;;;;;;4849136;29;20509;-82
2024/01/20 10:05:54;;;;;;;23.33;17.23;;;0.50;99.90;;;;;;4832735;29;20033;-85
2024/01/20 10:08:20;;;;;;;15.85;12.57;;;1.20;99.90;;;;;;4834210;29;20136;-85
2024/01/20 10:10:45;;;;;;;21.58;15.05;;;0.70;99.90;;;;;;4833457;29;20061;-86
2024/01/20 10:13:13;;;;;;;19.02;15.27;;;0.80;99.90;;;;;;4849685;29;20139;-88
2024/01/20 10:15:39;;;;;;;22.77;17.60;;;0.70;99.90;;;;;;4832676;29;20053;-81
2024/01/20 10:18:10;;;;;;;20.58;15.63;;;0.90;99.90;;;;;;4848646;29;20074;-82
2024/01/20 10:20:36;;;;;;;21.02;15.20;;;0.80;99.90;;;;;;4834038;29;20049;-82
2024/01/20 10:23:03;;;;;;;20.42;16.35;;;0.90;99.90;;;;;;4832852;29;20042;-79
2024/01/20 10:25:29;;;;;;;19.65;17.15;;;1.00;99.90;;;;;;4833862;29;20065;-83
2024/01/20 10:27:55;;;;;;;16.05;13.90;;;1.00;99.90;;;;;;4833138;29;20092;-79
2024/01/20 10:30:22;;;;;;;21.30;16.58;;;1.00;99.90;;;;;;4848024;29;20107;-84
2024/01/20 10:32:48;;;;;;;14.93;13.20;;;1.00;99.90;;;;;;4832815;29;20045;-79
2024/01/20 10:35:14;;;;;;;17.80;13.45;;;0.90;99.90;;;;;;4834576;29;20383;-79
2024/01/20 10:37:45;;;;;;;21.20;14.63;;;-0.10;99.90;;;;;;4832704;29;20038;-79
2024/01/20 10:40:15;;;;;;;18.55;13.82;;;1.00;99.90;;;;;;4833320;29;20141;-80
2024/01/20 10:43:05;;;;;;;16.98;14.07;;;1.90;99.90;;;;;;4833261;29;20141;-81
2024/01/20 10:45:37;;;;;;;22.05;19.77;;;1.00;99.90;;;;;;4846055;29;20160;-85
2024/01/20 10:48:10;;;;;;;17.25;15.02;;;1.10;99.90;;;;;;4833837;29;20041;-81
2024/01/20 10:50:40;;;;;;;16.48;14.38;;;1.70;99.90;;;;;;4848186;29;20061;-80
2024/01/20 10:53:07;;;;;;;15.60;12.60;;;1.50;99.90;;;;;;4835530;29;20070;-89
2024/01/20 10:55:34;;;;;;;19.88;17.88;;;1.50;99.90;;;;;;4848769;29;20510;-82
2024/01/20 10:58:04;;;;;;;19.23;17.20;;;1.20;99.90;;;;;;4832514;29;20537;-80
2024/01/20 11:00:30;;;;;;;15.60;12.60;;;1.20;99.90;;;;;;4839209;29;20057;-81
2024/01/20 11:02:56;;;;;;;15.60;13.90;;;1.20;99.90;;;;;;4848093;29;20049;-86
2024/01/20 11:05:23;;;;;;;21.20;16.20;;;1.20;99.90;;;;;;4832577;29;20054;-80
2024/01/20 11:08:06;;;;;;;19.08;13.50;;;1.20;99.90;;;;;;4832614;29;20046;-88
2024/01/20 11:10:44;;;;;;;17.90;13.40;;;1.20;99.90;;;;;;4832276;29;20050;-80
2024/01/20 11:13:11;;;;;;;17.77;13.77;;;1.20;99.90;;;;;;4848066;29;20510;-78
2024/01/20 11:15:39;;;;;;;16.23;14.50;;;1.40;99.90;;;;;;4832261;29;20049;-83
2024/01/20 11:18:18;;;;;;;17.27;13.43;;;1.20;99.90;;;;;;4847869;29;20159;-82
2024/01/20 11:21:01;;;;;;;16.67;13.80;;;1.80;99.90;;;;;;4832882;29;20128;-87
2024/01/20 11:23:27;;;;;;;24.40;16.27;;;1.30;99.90;;;;;;4815693;29;20061;-81
2024/01/20 11:25:54;;;;;;;16.10;12.88;;;1.30;99.90;;;;;;4848148;29;20510;-81
2024/01/20 11:28:31;;;;;;;17.80;12.18;;;1.30;99.90;;;;;;4847306;29;20049;-90
2024/01/20 11:30:57;;;;;;;17.10;13.23;;;1.30;99.90;;;;;;4847371;29;20050;-89
2024/01/20 11:33:26;;;;;;;16.88;13.88;;;1.30;99.90;;;;;;4832895;29;20090;-84
2024/01/20 11:35:53;;;;;;;15.57;12.23;;;1.50;99.90;;;;;;4831750;29;20045;-87
2024/01/20 11:38:19;;;;;;;18.40;14.88;;;1.30;99.90;;;;;;4823698;29;20102;-85
2024/01/20 11:40:55;;;;;;;27.42;18.13;;;1.40;99.90;;;;;;4831923;29;20045;-84
2024/01/20 11:43:21;;;;;;;22.40;17.63;;;2.40;99.90;;;;;;4836692;29;20046;-82
2024/01/20 11:45:47;;;;;;;15.20;13.60;;;1.40;99.90;;;;;;4831832;29;20094;-84
2024/01/20 11:48:17;;;;;;;25.00;22.70;;;1.90;99.90;;;;;;4833041;29;20087;-84
2024/01/20 11:50:43;;;;;;;19.15;14.57;;;1.40;99.90;;;;;;4843442;29;20498;-81
2024/01/20 11:53:09;;;;;;;15.00;13.35;;;1.40;99.90;;;;;;4847902;29;20178;-83
2024/01/20 11:55:35;;;;;;;16.95;14.93;;;1.30;99.90;;;;;;4832039;29;20054;-85
2024/01/20 11:58:01;;;;;;;19.30;15.38;;;1.40;99.90;;;;;;4831658;29;20415;-80
2024/01/20 12:00:27;;;;;;;20.23;14.13;;;1.40;99.90;;;;;;4831506;29;20042;-86
2024/01/20 12:02:53;;;;;;;23.48;17.95;;;1.40;99.90;;;;;;4831029;29;20128;-81
2024/01/20 12:05:20;;;;;;;19.90;17.75;;;1.40;99.90;;;;;;4831532;29;20053;-81
2024/01/20 12:07:46;;;;;;;19.38;14.52;;;1.40;99.90;;;;;;4846083;29;20060;-80
2024/01/20 12:10:15;;;;;;;19.08;14.93;;;1.40;99.90;;;;;;4831964;29;20074;-81
2024/01/20 12:12:41;;;;;;;17.25;13.43;;;1.30;99.90;;;;;;4827202;29;20046;-86
2024/01/20 12:15:07;;;;;;;17.48;15.35;;;1.30;99.90;;;;;;4831469;29;20058;-92
2024/01/20 12:17:33;;;;;;;16.27;14.40;;;2.50;99.90;;;;;;4832041;29;20501;-82
2024/01/20 12:19:59;;;;;;;20.30;15.68;;;1.50;99.90;;;;;;4821966;29;20070;-82
2024/01/20 12:22:25;;;;;;;21.35;18.63;;;1.30;99.90;;;;;;4835575;29;20525;-81
2024/01/20 12:24:51;;;;;;;19.13;17.20;;;1.30;99.90;;;;;;4835828;29;20042;-81
2024/01/20 12:27:18;;;;;;;15.32;12.35;;;1.30;99.90;;;;;;4834836;29;20060;-83